Time;durP1;ratioP1;P1;durP2;ratioP2;P2;SDS_P1;SDS_P2;PMS_P1;PMS_P2;Temp;Humidity;BMP_temperature;BMP_pressure;BME280_temperature;BME280_humidity;BME280_pressure;Samples;Min_cycle;Max_cycle;Signal;HPM_P1;HPM_P2
2021/09/14 00:02:07;;;;;;;19.58;11.20;;;;;;;15.67;74.22;101318.31;5105569;28;20493;-71
2021/09/14 00:04:34;;;;;;;20.95;11.63;;;;;;;15.65;73.98;101328.34;5071045;28;20041;-71
2021/09/14 00:07:02;;;;;;;19.95;12.55;;;;;;;15.63;74.58;101321.53;5073157;28;20045;-71
2021/09/14 00:09:29;;;;;;;21.35;11.77;;;;;;;15.60;74.76;101322.69;5072727;28;20048;-71
2021/09/14 00:11:56;;;;;;;23.85;12.10;;;;;;;15.56;74.97;101313.34;5071887;28;20055;-71
2021/09/14 00:14:23;;;;;;;18.30;11.18;;;;;;;15.59;74.90;101315.69;5070045;28;20816;-71
2021/09/14 00:16:50;;;;;;;19.92;11.55;;;;;;;15.54;75.07;101318.88;5052347;28;20037;-71
2021/09/14 00:19:17;;;;;;;20.30;12.27;;;;;;;15.55;74.85;101309.84;5064524;28;20504;-71
2021/09/14 00:21:44;;;;;;;20.45;11.80;;;;;;;15.51;74.54;101316.53;5071236;28;20039;-71
2021/09/14 00:24:11;;;;;;;21.10;12.10;;;;;;;15.53;74.34;101317.22;5103633;28;20044;-71
2021/09/14 00:26:38;;;;;;;23.23;11.75;;;;;;;15.51;74.79;101316.53;5055015;28;20045;-71
2021/09/14 00:29:06;;;;;;;20.45;12.20;;;;;;;15.53;74.89;101314.53;5072795;28;20562;-71
2021/09/14 00:31:34;;;;;;;19.23;11.82;;;;;;;15.55;74.51;101309.00;5072670;28;20051;-71
2021/09/14 00:34:01;;;;;;;21.55;11.93;;;;;;;15.60;74.74;101316.50;5070972;28;20413;-71
2021/09/14 00:36:28;;;;;;;17.08;11.20;;;;;;;15.56;74.60;101313.34;5071236;28;20390;-71
2021/09/14 00:38:54;;;;;;;20.38;12.25;;;;;;;15.53;74.22;101308.34;5072309;28;20056;-71
2021/09/14 00:41:21;;;;;;;24.20;12.35;;;;;;;15.51;74.98;101308.50;5072506;28;20059;-71
2021/09/14 00:44:03;;;;;;;19.77;11.57;;;;;;;15.48;75.06;101305.34;5082831;28;20032;-71
2021/09/14 00:46:30;;;;;;;18.23;12.35;;;;;;;15.43;75.14;101300.53;5092850;28;20139;-71
2021/09/14 00:48:57;;;;;;;20.20;12.13;;;;;;;15.41;74.88;101293.69;5074687;28;20040;-71
2021/09/14 00:51:24;;;;;;;17.65;11.73;;;;;;;15.42;74.79;101293.50;5092557;28;20570;-71
2021/09/14 00:53:51;;;;;;;20.13;12.10;;;;;;;15.40;74.98;101292.03;5091589;28;20044;-71
2021/09/14 00:56:19;;;;;;;21.77;12.25;;;;;;;15.39;75.23;101287.66;5078047;28;20466;-71
2021/09/14 00:58:45;;;;;;;21.42;12.15;;;;;;;15.37;75.25;101287.84;5072049;28;20408;-71
2021/09/14 01:01:12;;;;;;;22.17;13.25;;;;;;;15.34;75.68;101293.56;5071190;28;20051;-71
2021/09/14 01:03:39;;;;;;;23.25;13.25;;;;;;;15.33;75.78;101289.19;5070515;28;20519;-71
2021/09/14 01:06:06;;;;;;;20.20;12.32;;;;;;;15.31;75.80;101284.00;5068963;28;20132;-71
2021/09/14 01:08:35;;;;;;;20.92;12.55;;;;;;;15.28;75.47;101288.88;5071389;28;20131;-71
2021/09/14 01:11:03;;;;;;;18.50;11.95;;;;;;;15.28;75.46;101289.72;5072369;28;20446;-71
2021/09/14 01:13:30;;;;;;;23.40;13.43;;;;;;;15.29;75.62;101288.69;5071188;28;20048;-71
2021/09/14 01:16:04;;;;;;;22.40;13.13;;;;;;;15.26;75.86;101283.72;5054331;28;20045;-71
2021/09/14 01:18:31;;;;;;;18.65;12.77;;;;;;;15.15;75.78;101276.03;5070242;28;20516;-71
2021/09/14 01:20:58;;;;;;;21.17;12.25;;;;;;;15.21;75.94;101280.72;5072234;28;20041;-71
2021/09/14 01:23:25;;;;;;;24.75;12.38;;;;;;;15.21;76.16;101279.88;5071357;28;20040;-71
2021/09/14 01:25:54;;;;;;;22.58;12.80;;;;;;;15.23;75.95;101280.56;5069997;28;20057;-71
2021/09/14 01:28:22;;;;;;;19.88;12.52;;;;;;;15.19;75.49;101282.75;5069582;28;20123;-71
2021/09/14 01:30:48;;;;;;;21.95;12.75;;;;;;;15.17;75.99;101282.03;5070809;28;20531;-71
2021/09/14 01:33:16;;;;;;;27.25;12.68;;;;;;;15.15;75.96;101292.06;5071862;28;20553;-71
2021/09/14 01:35:43;;;;;;;21.33;12.80;;;;;;;15.17;75.62;101292.75;5070828;28;20041;-71
2021/09/14 01:38:12;;;;;;;22.33;13.23;;;;;;;15.10;76.04;101297.13;5071946;28;20431;-71
2021/09/14 01:40:40;;;;;;;19.52;12.90;;;;;;;15.04;76.42;101300.47;5072024;28;20123;-71
2021/09/14 01:43:08;;;;;;;23.20;12.50;;;;;;;15.02;76.68;101302.47;5072380;28;20471;-71
2021/09/14 01:45:36;;;;;;;23.63;12.38;;;;;;;15.00;76.98;101301.81;5071685;28;20052;-71
2021/09/14 01:48:07;;;;;;;26.48;12.70;;;;;;;14.96;77.26;101296.78;5071621;28;20068;-71
2021/09/14 01:50:36;;;;;;;19.17;12.10;;;;;;;14.95;76.93;101294.28;5071927;28;20556;-71
2021/09/14 01:53:04;;;;;;;22.05;13.57;;;;;;;14.90;76.59;101294.81;5072007;28;20512;-71
2021/09/14 01:55:34;;;;;;;23.55;14.10;;;;;;;14.91;77.01;101293.78;5101691;28;20045;-71
2021/09/14 01:58:00;;;;;;;20.50;13.00;;;;;;;14.82;77.19;101291.31;5068606;28;20809;-71
2021/09/14 02:00:30;;;;;;;20.83;13.25;;;;;;;14.80;77.63;101290.66;5071603;28;20048;-71
2021/09/14 02:03:20;;;;;;;21.73;12.98;;;;;;;14.75;77.23;101292.00;5070130;28;20455;-71
2021/09/14 02:44:57;;;;;;;22.75;14.38;;;;;;;14.55;79.65;101282.59;5071135;27;20185;-70
2021/09/14 02:58:38;;;;;;;24.92;14.98;;;;;;;14.47;79.42;101270.09;5060056;28;20119;-71
2021/09/14 03:01:08;;;;;;;22.13;14.82;;;;;;;14.49;79.10;101267.25;5069549;28;20095;-71
2021/09/14 03:03:37;;;;;;;21.98;14.95;;;;;;;14.47;78.83;101264.75;5069024;28;20040;-71
2021/09/14 03:06:05;;;;;;;26.23;15.77;;;;;;;14.50;78.78;101258.28;5069446;28;20072;-71
2021/09/14 03:08:33;;;;;;;26.35;15.75;;;;;;;14.49;78.94;101256.59;5069381;28;20048;-71
2021/09/14 03:11:17;;;;;;;24.52;15.98;;;;;;;14.53;79.07;101258.75;5069202;28;20160;-71
2021/09/14 03:13:51;;;;;;;26.02;15.18;;;;;;;14.55;79.10;101264.78;5067936;28;20047;-71
2021/09/14 03:16:19;;;;;;;28.17;15.52;;;;;;;14.53;79.31;101269.41;5069301;28;20049;-71
2021/09/14 03:18:46;;;;;;;23.73;15.95;;;;;;;14.55;79.39;101262.09;5067853;28;20128;-71
2021/09/14 03:21:13;;;;;;;27.27;15.98;;;;;;;14.49;79.58;101265.41;5101186;28;20076;-71
2021/09/14 03:23:41;;;;;;;23.73;16.45;;;;;;;14.49;79.36;101257.41;5082899;28;20043;-71
2021/09/14 03:26:08;;;;;;;27.45;16.50;;;;;;;14.51;79.14;101257.25;5101325;28;20448;-71
2021/09/14 03:28:36;;;;;;;27.90;16.02;;;;;;;14.49;79.35;101249.41;5065131;28;20119;-71
2021/09/14 03:31:03;;;;;;;26.13;15.75;;;;;;;14.45;79.51;101242.75;5069091;28;20049;-71
2021/09/14 03:33:31;;;;;;;26.95;16.52;;;;;;;14.44;79.84;101249.06;5068804;28;20116;-71
2021/09/14 03:35:58;;;;;;;28.25;16.63;;;;;;;14.46;79.33;101251.56;5067268;28;20045;-71
2021/09/14 03:38:25;;;;;;;23.30;15.93;;;;;;;14.47;78.72;101240.72;5067999;28;20131;-71
2021/09/14 03:40:52;;;;;;;25.10;16.08;;;;;;;14.43;78.57;101236.75;5068730;28;20446;-71
2021/09/14 03:43:19;;;;;;;26.55;16.73;;;;;;;14.42;78.69;101226.22;5052665;28;20037;-71
2021/09/14 03:45:46;;;;;;;24.50;16.15;;;;;;;14.44;79.02;101235.72;5048846;28;20505;-72
2021/09/14 03:48:17;;;;;;;28.25;16.10;;;;;;;14.43;78.91;101238.59;5055715;28;20064;-71
2021/09/14 03:50:47;;;;;;;26.15;15.95;;;;;;;14.42;79.30;101234.22;5068448;28;20079;-71
2021/09/14 03:53:15;;;;;;;25.85;16.17;;;;;;;14.47;79.25;101229.22;5068588;28;20044;-71
2021/09/14 03:55:42;;;;;;;24.67;16.35;;;;;;;14.43;79.19;101227.91;5056343;28;20044;-71
2021/09/14 03:58:09;;;;;;;25.17;16.80;;;;;;;14.38;79.03;101225.72;5053981;28;20094;-71
2021/09/14 04:00:36;;;;;;;24.73;16.50;;;;;;;14.36;79.09;101219.72;5055322;28;20045;-71
2021/09/14 04:03:20;;;;;;;28.95;16.13;;;;;;;14.32;79.11;101213.06;5054781;28;20060;-71
2021/09/14 04:06:06;;;;;;;24.85;17.33;;;;;;;14.32;79.19;101205.06;5054079;28;20051;-71
2021/09/14 04:08:54;;;;;;;26.65;16.95;;;;;;;14.32;79.11;101203.22;5053874;28;20059;-71
2021/09/14 04:11:28;;;;;;;27.55;17.08;;;;;;;14.32;79.65;101199.72;5054790;28;20056;-71
2021/09/14 04:13:57;;;;;;;28.88;17.02;;;;;;;14.35;79.35;101191.34;5051838;28;20099;-71
2021/09/14 04:16:24;;;;;;;26.40;15.95;;;;;;;14.33;79.33;101190.69;5041409;28;20050;-71
2021/09/14 04:18:51;;;;;;;25.90;16.75;;;;;;;14.31;79.42;101188.19;5040421;28;20040;-71
2021/09/14 04:21:18;;;;;;;27.50;17.52;;;;;;;14.33;79.44;101186.19;5046292;28;20141;-71
2021/09/14 04:23:46;;;;;;;29.13;17.05;;;;;;;14.30;79.42;101191.06;5052299;28;20041;-71
2021/09/14 04:26:13;;;;;;;28.42;16.95;;;;;;;14.31;79.62;101188.19;5086577;28;20045;-71
2021/09/14 04:28:39;;;;;;;24.92;16.05;;;;;;;14.31;79.81;101203.38;5054667;28;20091;-71
2021/09/14 04:31:07;;;;;;;28.40;17.20;;;;;;;14.24;79.87;101184.53;5054551;28;20383;-71
2021/09/14 04:33:36;;;;;;;27.65;16.73;;;;;;;14.28;80.01;101195.69;5085890;28;20041;-71
2021/09/14 04:36:03;;;;;;;27.52;15.57;;;;;;;14.26;79.93;101193.22;5054249;28;20045;-71
2021/09/14 04:38:33;;;;;;;22.50;15.70;;;;;;;14.27;80.03;101199.38;5033561;28;20128;-71
2021/09/14 04:41:00;;;;;;;27.25;16.98;;;;;;;14.25;79.97;101194.19;5032759;28;20041;-71
2021/09/14 04:43:26;;;;;;;31.08;16.85;;;;;;;14.24;79.86;101200.53;5034025;28;20053;-71
2021/09/14 04:45:53;;;;;;;24.80;16.20;;;;;;;14.21;80.17;101190.22;5066043;28;20049;-71
2021/09/14 04:48:21;;;;;;;28.25;18.08;;;;;;;14.21;80.29;101199.03;5045722;28;20049;-71
2021/09/14 04:50:48;;;;;;;28.27;17.13;;;;;;;14.25;80.10;101198.72;5036204;28;20074;-71
2021/09/14 04:53:16;;;;;;;29.70;17.35;;;;;;;14.19;80.34;101197.56;5052239;28;20091;-71
2021/09/14 04:55:44;;;;;;;29.70;16.48;;;;;;;14.14;80.34;101192.69;5066091;28;20407;-71
2021/09/14 04:58:11;;;;;;;25.77;16.83;;;;;;;14.16;79.99;101188.03;5032859;28;20042;-71
2021/09/14 05:00:38;;;;;;;26.95;17.38;;;;;;;14.13;80.12;101190.19;5033889;28;20124;-71
2021/09/14 05:03:06;;;;;;;24.92;17.00;;;;;;;14.18;80.01;101187.88;5033737;28;20038;-71
2021/09/14 05:05:33;;;;;;;23.05;16.73;;;;;;;14.17;80.10;101178.19;5033237;28;20061;-71
2021/09/14 05:08:01;;;;;;;31.90;17.75;;;;;;;14.17;80.42;101189.72;5044258;28;20037;-71
2021/09/14 05:10:29;;;;;;;26.70;17.52;;;;;;;14.16;80.21;101193.38;5052480;28;20510;-71
2021/09/14 05:12:56;;;;;;;37.60;17.73;;;;;;;14.18;80.30;101195.88;5052691;28;20044;-71
2021/09/14 05:15:23;;;;;;;24.83;17.38;;;;;;;14.21;80.31;101198.22;5053500;28;20378;-71
2021/09/14 05:18:03;;;;;;;36.72;17.60;;;;;;;14.21;80.39;101204.38;5051774;28;20559;-71
2021/09/14 05:20:38;;;;;;;27.00;17.35;;;;;;;14.24;80.31;101203.19;5036293;28;20081;-71
2021/09/14 05:23:15;;;;;;;28.73;17.60;;;;;;;14.18;79.86;101196.69;5037624;28;20044;-71
2021/09/14 05:25:45;;;;;;;29.75;17.73;;;;;;;14.09;80.27;101200.38;5036895;28;20042;-71
2021/09/14 05:28:13;;;;;;;28.98;17.45;;;;;;;14.13;80.38;101198.19;5037457;28;20052;-71
2021/09/14 05:30:43;;;;;;;28.55;18.08;;;;;;;14.13;80.15;101193.69;5052750;28;20053;-71
2021/09/14 05:33:10;;;;;;;30.70;17.65;;;;;;;14.12;80.50;101207.22;5067600;28;20041;-71
2021/09/14 05:35:48;;;;;;;28.33;17.58;;;;;;;14.18;80.40;101206.53;5084311;28;20049;-71
2021/09/14 05:38:18;;;;;;;27.20;17.90;;;;;;;14.19;80.36;101197.56;5052859;28;20120;-71
2021/09/14 05:40:47;;;;;;;34.33;17.90;;;;;;;14.18;80.20;101191.38;5052718;28;20048;-71
2021/09/14 05:43:21;;;;;;;32.90;18.52;;;;;;;14.19;80.48;101187.72;5080817;28;20044;-71
2021/09/14 05:45:48;;;;;;;32.60;18.23;;;;;;;14.26;80.78;101193.22;5031640;28;20049;-72
2021/09/14 05:48:15;;;;;;;31.23;17.77;;;;;;;14.31;80.74;101193.53;5032549;28;20041;-71
2021/09/14 05:50:43;;;;;;;40.72;19.70;;;;;;;14.40;80.96;101200.53;5038908;28;20051;-71
2021/09/14 05:53:10;;;;;;;28.13;18.75;;;;;;;14.47;80.34;101203.38;5051897;28;20132;-71
2021/09/14 05:55:39;;;;;;;31.15;17.95;;;;;;;14.55;80.30;101208.72;5052490;28;20049;-71
2021/09/14 05:58:08;;;;;;;32.47;17.70;;;;;;;14.59;80.54;101211.91;5084310;28;20564;-71
2021/09/14 06:00:36;;;;;;;32.25;17.30;;;;;;;14.68;80.53;101210.88;5046565;28;20045;-71
2021/09/14 06:03:03;;;;;;;32.92;17.92;;;;;;;14.70;79.97;101208.88;5032446;28;20052;-72
2021/09/14 06:05:33;;;;;;;32.25;17.88;;;;;;;14.81;80.43;101214.84;5047207;28;20049;-71
2021/09/14 06:08:00;;;;;;;30.88;19.10;;;;;;;14.83;80.32;101202.19;5043820;28;20448;-71
2021/09/14 06:10:29;;;;;;;31.50;17.75;;;;;;;14.85;80.39;101201.00;5067904;28;20045;-71
2021/09/14 06:13:15;;;;;;;30.67;18.52;;;;;;;14.96;80.05;101207.81;5052175;28;20041;-71
2021/09/14 06:15:44;;;;;;;31.73;18.40;;;;;;;15.00;80.15;101202.97;5051225;28;20432;-71
2021/09/14 06:18:12;;;;;;;29.85;17.75;;;;;;;15.10;79.89;101201.75;5052075;28;20128;-71
2021/09/14 06:20:40;;;;;;;29.60;18.17;;;;;;;15.11;79.89;101202.59;5049359;28;20120;-71
2021/09/14 06:23:07;;;;;;;27.98;17.13;;;;;;;15.15;79.84;101193.22;5050804;28;20052;-71
2021/09/14 06:25:36;;;;;;;32.08;18.38;;;;;;;15.27;79.74;101201.69;5052472;28;20041;-71
2021/09/14 06:28:05;;;;;;;41.35;17.52;;;;;;;15.34;78.64;101206.16;5083288;28;20505;-71
2021/09/14 06:30:33;;;;;;;56.97;18.60;;;;;;;15.40;78.14;101196.59;5052289;28;20069;-71
2021/09/14 06:33:01;;;;;;;37.35;18.40;;;;;;;15.46;78.08;101200.41;5050230;28;20040;-72
2021/09/14 06:35:28;;;;;;;34.00;16.90;;;;;;;15.53;77.95;101202.25;5050915;28;20128;-71
2021/09/14 06:38:02;;;;;;;30.50;16.80;;;;;;;15.57;77.46;101202.69;5072421;28;20044;-71
2021/09/14 06:40:32;;;;;;;28.98;16.83;;;;;;;15.67;77.40;101207.84;5032343;28;20042;-71
2021/09/14 06:42:59;;;;;;;33.25;17.15;;;;;;;15.74;77.17;101208.84;5032053;28;20049;-71
2021/09/14 06:45:40;;;;;;;65.45;21.50;;;;;;;15.81;77.14;101212.47;5031283;28;20065;-71
2021/09/14 06:48:16;;;;;;;43.92;19.90;;;;;;;15.83;76.62;101204.28;5029223;28;20045;-71
2021/09/14 06:50:43;;;;;;;39.63;17.73;;;;;;;15.92;76.70;101204.03;5036462;28;20451;-71
2021/09/14 06:53:11;;;;;;;49.45;19.75;;;;;;;15.95;76.84;101202.81;5084214;28;20102;-71
2021/09/14 06:55:38;;;;;;;48.03;18.13;;;;;;;15.98;76.84;101204.34;5083857;28;20041;-71
2021/09/14 06:58:05;;;;;;;42.80;17.05;;;;;;;16.06;76.62;101206.94;5050647;28;20048;-71
2021/09/14 07:00:32;;;;;;;29.63;16.92;;;;;;;16.11;75.54;101204.56;5042422;28;20041;-71
2021/09/14 07:02:58;;;;;;;32.90;17.40;;;;;;;16.17;75.33;101205.69;5024833;28;20100;-71
2021/09/14 07:05:25;;;;;;;35.33;16.65;;;;;;;16.22;75.88;101198.78;5030622;28;20064;-72
2021/09/14 07:07:53;;;;;;;26.73;17.27;;;;;;;16.25;75.59;101202.94;5041837;28;20109;-71
2021/09/14 07:10:20;;;;;;;32.42;16.52;;;;;;;16.30;74.83;101200.56;5050831;28;20494;-71
2021/09/14 07:12:47;;;;;;;27.33;16.40;;;;;;;16.36;74.47;101199.00;5051872;28;20498;-72
2021/09/14 07:15:14;;;;;;;30.60;16.77;;;;;;;16.42;74.26;101204.47;5050698;28;20037;-71
2021/09/14 07:17:43;;;;;;;27.05;15.68;;;;;;;16.51;73.86;101197.19;5051791;28;20049;-71
2021/09/14 07:20:11;;;;;;;28.77;14.93;;;;;;;16.56;73.79;101199.34;5084302;28;20048;-71
2021/09/14 07:22:37;;;;;;;31.25;16.17;;;;;;;16.60;73.99;101198.78;5050207;28;20049;-71
2021/09/14 07:25:05;;;;;;;31.42;15.68;;;;;;;16.61;73.15;101192.41;5036380;28;20072;-71
2021/09/14 07:27:33;;;;;;;24.65;15.35;;;;;;;16.64;73.62;101186.66;5038350;28;20045;-71
2021/09/14 07:30:00;;;;;;;29.45;14.90;;;;;;;16.77;73.22;101194.09;5046093;28;20040;-71
2021/09/14 07:32:32;;;;;;;26.65;15.15;;;;;;;16.76;72.76;101183.56;5048761;28;20064;-71
2021/09/14 07:35:06;;;;;;;25.02;14.93;;;;;;;16.87;73.18;101185.81;5053209;28;20033;-70
2021/09/14 07:37:33;;;;;;;27.45;14.77;;;;;;;16.95;72.76;101184.88;5052671;28;20045;-69
2021/09/14 07:40:00;;;;;;;21.15;14.00;;;;;;;16.97;73.17;101181.00;5051915;28;20047;-68
2021/09/14 07:42:26;;;;;;;26.67;14.80;;;;;;;16.96;72.50;101173.16;5052079;28;20059;-70
2021/09/14 07:44:54;;;;;;;25.63;14.95;;;;;;;16.95;73.00;101182.19;5054685;28;20047;-68
2021/09/14 07:47:22;;;;;;;31.58;15.18;;;;;;;17.13;72.01;101176.47;5044858;28;20523;-69
2021/09/14 07:49:49;;;;;;;26.48;14.80;;;;;;;17.10;72.21;101176.81;5044728;28;20493;-69
2021/09/14 07:52:16;;;;;;;25.02;15.00;;;;;;;17.12;72.35;101182.81;5056860;28;20041;-68
2021/09/14 07:54:42;;;;;;;27.98;15.20;;;;;;;17.12;72.18;101189.03;5051708;28;20064;-68
2021/09/14 07:57:09;;;;;;;26.02;14.25;;;;;;;17.20;72.67;101180.88;5053056;28;20124;-70
2021/09/14 07:59:36;;;;;;;25.90;15.60;;;;;;;17.26;72.79;101188.19;5051894;28;20970;-69
2021/09/14 08:02:03;;;;;;;27.40;15.32;;;;;;;17.35;72.26;101182.72;5023812;28;20033;-69
2021/09/14 08:04:30;;;;;;;26.20;14.73;;;;;;;17.41;70.89;101187.34;5048796;28;20040;-68
2021/09/14 08:06:57;;;;;;;25.33;15.10;;;;;;;17.42;71.83;101187.13;5054744;28;20076;-68
2021/09/14 08:09:27;;;;;;;25.95;15.15;;;;;;;17.46;72.32;101195.63;5043260;28;20054;-68
2021/09/14 08:11:55;;;;;;;27.98;14.48;;;;;;;17.78;69.38;101196.19;5044182;28;20124;-68
2021/09/14 08:14:22;;;;;;;25.48;14.07;;;;;;;17.75;69.68;101200.06;5049790;28;20405;-68
2021/09/14 08:16:49;;;;;;;22.50;13.70;;;;;;;17.71;69.66;101198.78;5053709;28;20041;-68
2021/09/14 08:19:16;;;;;;;22.17;13.18;;;;;;;17.76;68.96;101193.69;5049051;28;20041;-68
2021/09/14 08:21:43;;;;;;;23.27;12.52;;;;;;;17.91;69.50;101199.03;5050638;28;20461;-68
2021/09/14 08:24:13;;;;;;;28.00;12.70;;;;;;;18.02;69.08;101203.88;5046364;28;20405;-68
2021/09/14 08:26:50;;;;;;;22.38;12.32;;;;;;;18.13;68.74;101199.84;5046460;28;20041;-68
2021/09/14 08:29:24;;;;;;;18.95;11.75;;;;;;;18.20;66.77;101194.56;5073922;28;20112;-68
2021/09/14 08:32:03;;;;;;;21.02;11.60;;;;;;;18.29;67.35;101182.66;5057567;28;20581;-68
2021/09/14 08:34:40;;;;;;;24.70;11.93;;;;;;;18.37;67.61;101184.34;5052977;28;20036;-68
2021/09/14 08:37:19;;;;;;;25.55;11.85;;;;;;;18.61;65.72;101183.94;5049100;28;20033;-68
2021/09/14 08:39:58;;;;;;;20.17;10.95;;;;;;;18.77;66.09;101179.25;5045638;28;20498;-68
2021/09/14 08:42:35;;;;;;;19.30;10.68;;;;;;;18.84;66.88;101174.78;5051559;28;20413;-68
2021/09/14 08:45:07;;;;;;;24.60;10.53;;;;;;;19.05;65.59;101178.44;5051003;28;20497;-68
2021/09/14 08:47:50;;;;;;;17.60;10.18;;;;;;;19.20;65.20;101184.47;5051806;28;20984;-68
2021/09/14 08:50:33;;;;;;;19.08;9.77;;;;;;;19.41;63.85;101188.06;5047485;28;20414;-68
2021/09/14 08:53:06;;;;;;;18.02;10.18;;;;;;;19.60;62.30;101191.88;5048424;28;20033;-68
2021/09/14 08:55:38;;;;;;;20.52;9.88;;;;;;;19.77;62.87;101192.34;5048844;28;20037;-68
2021/09/14 08:58:08;;;;;;;18.48;9.70;;;;;;;19.91;61.96;101188.66;5052881;28;20175;-68
2021/09/14 09:00:39;;;;;;;21.55;10.20;;;;;;;20.06;61.32;101191.16;5052493;28;20033;-68
2021/09/14 09:03:09;;;;;;;17.63;9.60;;;;;;;20.16;61.12;101188.06;5048050;28;20094;-68
2021/09/14 09:05:39;;;;;;;24.23;9.75;;;;;;;20.32;60.75;101175.00;5047645;28;20660;-68
2021/09/14 09:08:23;;;;;;;16.40;10.05;;;;;;;20.50;60.38;101170.81;5048253;28;20465;-68
2021/09/14 09:11:13;;;;;;;19.65;9.25;;;;;;;21.03;58.71;101178.84;5045777;28;20490;-68
2021/09/14 09:13:49;;;;;;;20.67;9.82;;;;;;;21.76;57.10;101179.56;5049626;28;20513;-69
2021/09/14 09:16:20;;;;;;;19.88;9.20;;;;;;;22.71;53.93;101168.56;5047077;28;20231;-68
2021/09/14 09:18:52;;;;;;;23.13;9.23;;;;;;;23.24;51.79;101169.88;5050565;28;20068;-69
2021/09/14 09:21:28;;;;;;;17.40;8.80;;;;;;;23.75;51.09;101171.22;5043779;28;20123;-69
2021/09/14 09:23:57;;;;;;;19.02;8.85;;;;;;;24.43;48.76;101161.00;5044869;28;20103;-69
2021/09/14 09:26:33;;;;;;;20.25;8.63;;;;;;;25.45;46.77;101158.78;5046329;28;20041;-69
2021/09/14 09:29:04;;;;;;;17.00;8.77;;;;;;;26.54;43.63;101157.63;5050128;28;20041;-69
2021/09/14 09:31:33;;;;;;;20.77;8.80;;;;;;;27.16;41.87;101151.06;5050025;28;20037;-69
2021/09/14 09:36:41;;;;;;;19.52;8.70;;;;;;;28.24;38.99;101143.09;5082007;27;20170;-68
2021/09/14 09:39:11;;;;;;;21.20;8.60;;;;;;;29.13;37.80;101141.34;5049470;28;20045;-70
2021/09/14 09:41:48;;;;;;;17.52;8.70;;;;;;;30.10;35.67;101140.63;5049271;28;20127;-70
2021/09/14 09:44:15;;;;;;;19.33;8.60;;;;;;;30.59;34.22;101142.75;5068214;28;20052;-70
2021/09/14 09:46:42;;;;;;;16.17;8.30;;;;;;;30.97;33.03;101147.81;5048322;28;20041;-69
2021/09/14 09:49:10;;;;;;;22.33;8.60;;;;;;;31.67;32.77;101146.84;5064607;28;20468;-70
2021/09/14 09:51:37;;;;;;;15.80;7.20;;;;;;;31.48;32.52;101150.28;5059345;28;20390;-70
2021/09/14 09:54:05;;;;;;;18.95;8.05;;;;;;;31.50;32.03;101150.81;5077833;28;20422;-69
2021/09/14 09:56:32;;;;;;;16.77;7.60;;;;;;;30.79;34.07;101158.28;5057070;28;20124;-69
2021/09/14 09:59:02;;;;;;;19.15;7.40;;;;;;;30.20;35.31;101156.25;5065424;28;20453;-69
2021/09/14 10:01:29;;;;;;;14.65;7.25;;;;;;;29.29;36.54;101153.16;5065623;28;20114;-69
2021/09/14 10:04:17;;;;;;;16.17;7.80;;;;;;;30.24;34.87;101149.91;5044941;28;20076;-69
2021/09/14 10:06:47;;;;;;;21.70;8.02;;;;;;;30.55;34.94;101140.84;5067380;28;20041;-69
2021/09/14 10:09:14;;;;;;;16.60;7.78;;;;;;;30.32;34.77;101148.53;5054105;28;20111;-69
2021/09/14 10:11:41;;;;;;;15.70;7.30;;;;;;;29.47;35.99;101132.69;5072878;28;20036;-69
2021/09/14 10:14:11;;;;;;;22.02;6.78;;;;;;;28.26;39.28;101141.72;5070101;28;20575;-69
2021/09/14 10:16:49;;;;;;;20.27;7.27;;;;;;;26.59;42.55;101133.19;5064395;28;20077;-68
2021/09/14 10:19:25;;;;;;;17.00;7.45;;;;;;;26.38;43.29;101128.56;5039059;28;20040;-70
2021/09/14 10:22:04;;;;;;;14.10;7.10;;;;;;;25.64;44.53;101132.25;5050267;28;20422;-70
2021/09/14 10:24:33;;;;;;;19.15;7.22;;;;;;;25.26;45.38;101137.25;5071188;28;20568;-70
2021/09/14 10:27:11;;;;;;;16.80;7.03;;;;;;;24.58;48.49;101138.84;5083207;28;20435;-70
2021/09/14 10:29:41;;;;;;;16.85;6.90;;;;;;;24.30;49.23;101132.25;5057818;28;20400;-70
2021/09/14 10:32:11;;;;;;;12.52;6.13;;;;;;;24.18;49.88;101141.44;5074445;28;20119;-70
2021/09/14 10:34:42;;;;;;;14.30;6.97;;;;;;;24.36;48.73;101138.59;5064367;28;20049;-71
2021/09/14 10:37:11;;;;;;;15.25;7.40;;;;;;;24.70;48.21;101136.94;5065726;28;20541;-70
2021/09/14 10:39:40;;;;;;;51.83;28.73;;;;;;;25.29;47.08;101125.94;5066866;28;20071;-70
2021/09/14 10:42:16;;;;;;;24.25;10.40;;;;;;;25.56;45.84;101121.75;5063928;28;20404;-69
2021/09/14 10:44:46;;;;;;;24.13;11.25;;;;;;;26.11;45.78;101121.09;5066914;28;20049;-69
2021/09/14 10:47:18;;;;;;;15.82;6.97;;;;;;;26.07;44.68;101124.53;5035240;28;20049;-69
2021/09/14 10:55:13;;;;;;;14.80;7.07;;;;;;;25.93;46.50;101127.59;5109960;27;20646;-71
2021/09/14 10:57:43;;;;;;;11.82;6.10;;;;;;;26.21;45.55;101114.97;5089339;28;20048;-69
2021/09/14 11:00:12;;;;;;;16.80;6.68;;;;;;;25.84;45.76;101113.56;5091699;28;20046;-71
2021/09/14 11:02:39;;;;;;;15.82;7.30;;;;;;;25.89;45.88;101112.84;5096112;28;20040;-70
2021/09/14 11:05:08;;;;;;;15.52;7.00;;;;;;;26.03;45.29;101111.47;5085388;28;20054;-70
2021/09/14 11:07:36;;;;;;;13.80;6.70;;;;;;;25.90;47.38;101106.31;5071051;28;20419;-70
2021/09/14 11:10:10;;;;;;;18.10;7.32;;;;;;;25.90;46.57;101094.63;5086726;28;20044;-70
2021/09/14 11:12:44;;;;;;;16.52;6.57;;;;;;;25.90;47.15;101094.63;5085443;28;20432;-70
2021/09/14 11:15:11;;;;;;;16.70;6.25;;;;;;;25.97;47.02;101096.13;5088895;28;20093;-70
2021/09/14 11:17:38;;;;;;;12.10;6.03;;;;;;;26.27;45.99;101096.81;5085575;28;20102;-70
2021/09/14 11:20:11;;;;;;;17.58;7.90;;;;;;;26.22;46.58;101100.31;5096129;28;20133;-70
2021/09/14 11:22:41;;;;;;;16.80;6.38;;;;;;;26.18;46.22;101094.56;5107229;28;20067;-70
2021/09/14 11:25:18;;;;;;;18.40;6.72;;;;;;;25.99;46.64;101087.72;5103525;28;20064;-70
2021/09/14 11:28:09;;;;;;;16.80;6.47;;;;;;;26.13;46.67;101086.31;5084059;28;20040;-70
2021/09/14 11:30:40;;;;;;;16.85;6.63;;;;;;;26.04;46.97;101087.81;5101835;28;20109;-70
2021/09/14 11:33:07;;;;;;;13.35;6.30;;;;;;;26.14;45.64;101084.41;5101119;28;20039;-70
2021/09/14 11:35:36;;;;;;;12.55;6.00;;;;;;;26.29;45.74;101092.00;5105778;28;20048;-70
2021/09/14 11:38:05;;;;;;;12.98;5.65;;;;;;;26.68;45.95;101076.47;5085621;28;20430;-70
2021/09/14 11:40:42;;;;;;;12.20;6.68;;;;;;;26.89;45.42;101080.25;5104205;28;20530;-69
2021/09/14 11:43:10;;;;;;;10.23;5.70;;;;;;;27.41;44.27;101072.63;5104532;28;20127;-70
2021/09/14 11:45:37;;;;;;;14.45;6.15;;;;;;;27.89;42.80;101076.28;5074450;28;20100;-70
2021/09/14 11:48:16;;;;;;;17.75;7.25;;;;;;;27.74;42.01;101074.25;5087455;28;20044;-70
2021/09/14 11:50:43;;;;;;;14.70;6.05;;;;;;;27.88;42.74;101074.63;5081599;28;20123;-70
2021/09/14 11:53:15;;;;;;;13.48;5.90;;;;;;;27.91;42.78;101066.78;5107104;28;20089;-70
2021/09/14 11:55:48;;;;;;;10.35;6.00;;;;;;;27.44;43.28;101072.94;5061935;28;20043;-70
2021/09/14 11:58:28;;;;;;;14.45;5.85;;;;;;;27.68;43.45;101075.31;5082478;28;20104;-70
2021/09/14 12:00:58;;;;;;;13.75;5.97;;;;;;;27.43;43.01;101074.00;5052862;28;20074;-69
2021/09/14 12:03:36;;;;;;;13.55;5.90;;;;;;;27.62;43.63;101070.91;5068207;28;20040;-70
2021/09/14 12:06:06;;;;;;;13.77;6.40;;;;;;;27.61;42.09;101061.91;5050801;28;20067;-69
2021/09/14 12:08:38;;;;;;;10.90;5.88;;;;;;;27.54;42.35;101059.41;5046696;28;20036;-69
2021/09/14 12:11:05;;;;;;;14.05;6.05;;;;;;;27.39;43.14;101064.72;5067195;28;20118;-69
2021/09/14 12:13:38;;;;;;;14.43;5.78;;;;;;;27.00;44.29;101062.94;5057990;28;20040;-69
2021/09/14 12:16:12;;;;;;;15.07;6.20;;;;;;;26.85;45.15;101054.63;5071559;28;20450;-69
2021/09/14 12:18:42;;;;;;;12.00;6.40;;;;;;;26.74;45.95;101056.41;5056443;28;20501;-69
2021/09/14 12:21:10;;;;;;;11.05;5.65;;;;;;;26.65;45.82;101054.38;5068839;28;20850;-69
2021/09/14 12:23:38;;;;;;;17.02;6.45;;;;;;;26.44;46.87;101062.25;5065718;28;20127;-69